Terminal Aerodrome Forecast
Issued by NWS

Home | Current Version | Previous Version | Text Only | Print | Product List | Glossary Off
Versions: 1 2 3 4 5 6 7 8 9 10 11 12 13 14 15 16 17 18 19
000 FTUS41 KBOX 041125 TAFFMH TAF KFMH 041125Z 0412/0512 06006KT P6SM OVC035 FM041400 07008KT P6SM VCSH OVC025 FM041600 06009KT P6SM VCSH OVC010 FM042100 06010G19KT 5SM -RA BR OVC008 FM050700 03010G24KT 5SM BR VCSH OVC004=

USA.gov is the U.S. government's official web portal to all federal, state and local government web resources and services.